createdAt,value
2022-08-12T00:02:45.487Z,2.15
2022-08-12T00:05:33.805Z,2.05
2022-08-12T00:08:30.862Z,2.25
2022-08-12T00:11:22.307Z,1.77
2022-08-12T00:14:07.888Z,2.13
2022-08-12T00:16:53.486Z,2.13
2022-08-12T00:19:38.878Z,2.38
2022-08-12T00:22:24.426Z,2.30
2022-08-12T00:25:17.818Z,2.03
2022-08-12T00:28:05.917Z,2.00
2022-08-12T00:30:52.064Z,2.20
2022-08-12T00:33:51.600Z,2.50
2022-08-12T00:36:48.872Z,2.53
2022-08-12T00:39:36.130Z,2.30
2022-08-12T00:42:12.840Z,2.00
2022-08-12T00:44:44.595Z,2.20
2022-08-12T00:47:24.623Z,2.13
2022-08-12T00:49:54.378Z,2.60
2022-08-12T00:52:22.620Z,2.13
2022-08-12T00:54:51.079Z,2.33
2022-08-12T00:57:19.361Z,2.15
2022-08-12T00:59:50.059Z,2.28
2022-08-12T01:02:26.702Z,2.30
2022-08-12T01:05:15.565Z,2.40
2022-08-12T01:08:18.982Z,1.98
2022-08-12T01:11:06.294Z,2.47
2022-08-12T01:13:36.136Z,2.38
2022-08-12T01:16:05.506Z,2.45
2022-08-12T01:18:36.755Z,2.17
2022-08-12T01:21:19.238Z,2.33
2022-08-12T01:23:48.698Z,2.00
2022-08-12T01:26:21.378Z,2.42
2022-08-12T01:28:50.418Z,2.25
2022-08-12T01:31:19.397Z,2.60
2022-08-12T01:34:00.697Z,2.67
2022-08-12T01:36:30.781Z,2.80
2022-08-12T01:38:59.697Z,2.40
2022-08-12T01:41:31.099Z,2.85
2022-08-12T01:44:01.146Z,2.80
2022-08-12T01:46:55.841Z,2.80
2022-08-12T01:50:00.622Z,2.80
2022-08-12T01:52:33.303Z,3.60
2022-08-12T01:55:01.121Z,3.55
2022-08-12T01:57:57.620Z,3.42
2022-08-12T02:00:56.060Z,2.97
2022-08-12T02:04:07.943Z,3.90
2022-08-12T02:07:05.491Z,3.15
2022-08-12T02:10:11.385Z,3.28
2022-08-12T02:13:09.964Z,3.00
2022-08-12T02:15:50.871Z,3.30
2022-08-12T02:18:49.615Z,3.03
2022-08-12T02:21:38.844Z,2.80
2022-08-12T02:24:08.927Z,3.35
2022-08-12T02:26:39.664Z,2.88
2022-08-12T02:29:08.144Z,2.83
2022-08-12T02:31:35.725Z,2.97
2022-08-12T02:34:02.738Z,2.75
2022-08-12T02:36:31.782Z,2.92
2022-08-12T02:39:03.094Z,2.95
2022-08-12T02:41:32.420Z,3.03
2022-08-12T02:44:07.979Z,2.80
2022-08-12T02:46:36.835Z,3.20
2022-08-12T02:49:19.071Z,3.13
2022-08-12T02:51:45.941Z,3.47
2022-08-12T02:54:13.060Z,3.03
2022-08-12T02:56:42.111Z,3.03
2022-08-12T02:59:19.705Z,2.95
2022-08-12T03:02:03.544Z,2.78
2022-08-12T03:04:43.840Z,2.80
2022-08-12T03:07:14.721Z,2.80
2022-08-12T03:10:04.544Z,2.92
2022-08-12T03:12:42.806Z,3.10
2022-08-12T03:15:18.140Z,3.38
2022-08-12T03:18:26.276Z,2.92
2022-08-12T03:20:43.327Z,3.20
2022-08-12T03:23:17.480Z,3.17
2022-08-12T03:25:57.171Z,3.13
2022-08-12T03:28:43.130Z,3.50
2022-08-12T03:31:10.411Z,3.13
2022-08-12T03:33:40.357Z,3.05
2022-08-12T03:36:08.897Z,3.30
2022-08-12T03:38:40.502Z,2.97
2022-08-12T03:41:35.309Z,3.20
2022-08-12T03:44:31.077Z,2.92
2022-08-12T03:47:26.031Z,3.17
2022-08-12T03:50:12.987Z,3.20
2022-08-12T03:52:58.621Z,3.15
2022-08-12T03:55:43.839Z,3.00
2022-08-12T03:58:31.030Z,3.03
2022-08-12T04:00:58.695Z,3.05
2022-08-12T04:03:44.201Z,3.53
2022-08-12T04:06:11.003Z,3.15
2022-08-12T04:08:39.165Z,3.20
2022-08-12T04:11:27.073Z,3.35
2022-08-12T04:14:11.657Z,2.90
2022-08-12T04:16:39.660Z,3.20
2022-08-12T04:19:07.388Z,2.72
2022-08-12T04:21:36.239Z,3.10
2022-08-12T04:24:05.138Z,2.80
2022-08-12T04:26:32.336Z,2.88
2022-08-12T04:28:59.558Z,3.05
2022-08-12T04:31:37.269Z,3.08
2022-08-12T04:34:04.503Z,3.35
2022-08-12T04:36:31.938Z,3.38
2022-08-12T04:38:59.887Z,3.15
2022-08-12T04:41:27.595Z,3.00
2022-08-12T04:44:01.996Z,2.97
2022-08-12T04:46:33.626Z,3.05
2022-08-12T04:49:02.756Z,3.05
2022-08-12T04:51:30.115Z,2.67
2022-08-12T04:53:57.000Z,3.08
2022-08-12T04:56:24.157Z,3.10
2022-08-12T04:58:52.772Z,3.13
2022-08-12T05:01:20.236Z,2.92
2022-08-12T05:03:49.146Z,3.20
2022-08-12T05:06:20.752Z,2.78
2022-08-12T05:08:55.156Z,2.70
2022-08-12T05:11:24.796Z,3.25
2022-08-12T05:14:00.333Z,2.88
2022-08-12T05:16:32.579Z,3.17
2022-08-12T05:19:02.940Z,2.85
2022-08-12T05:21:29.719Z,3.30
2022-08-12T05:23:56.569Z,2.90
2022-08-12T05:26:23.357Z,2.78
2022-08-12T05:28:50.975Z,3.22
2022-08-12T05:31:41.752Z,3.15
2022-08-12T05:34:06.293Z,2.95
2022-08-12T05:36:33.536Z,3.00
2022-08-12T05:39:00.455Z,2.80
2022-08-12T05:41:32.441Z,3.10
2022-08-12T05:44:11.667Z,2.70
2022-08-12T05:46:38.424Z,2.88
2022-08-12T05:49:06.090Z,2.85
2022-08-12T05:51:40.782Z,3.13
2022-08-12T05:54:09.326Z,2.78
2022-08-12T05:56:36.427Z,3.33
2022-08-12T05:59:07.752Z,2.83
2022-08-12T06:02:09.599Z,2.95
2022-08-12T06:04:22.384Z,3.00
2022-08-12T06:06:53.235Z,3.00
2022-08-12T06:09:22.336Z,3.35
2022-08-12T06:12:05.405Z,2.70
2022-08-12T06:14:38.753Z,2.90
2022-08-12T06:17:08.563Z,3.00
2022-08-12T06:20:27.355Z,3.00
2022-08-12T06:22:22.634Z,2.83
2022-08-12T06:24:49.945Z,2.72
2022-08-12T06:27:18.619Z,2.63
2022-08-12T06:30:07.004Z,2.80
2022-08-12T06:32:32.419Z,2.95
2022-08-12T06:35:23.932Z,2.30
2022-08-12T06:37:51.498Z,3.28
2022-08-12T06:40:42.128Z,2.60
2022-08-12T06:43:08.985Z,2.63
2022-08-12T06:45:46.782Z,2.42
2022-08-12T06:48:14.290Z,2.53
2022-08-12T06:50:42.254Z,2.53
2022-08-12T06:53:11.086Z,2.80
2022-08-12T06:55:39.256Z,2.50
2022-08-12T06:58:25.055Z,2.45
2022-08-12T07:00:51.944Z,2.58
2022-08-12T07:03:27.581Z,2.50
2022-08-12T07:06:00.972Z,2.80
2022-08-12T07:08:29.523Z,2.88
2022-08-12T07:11:05.727Z,2.67
2022-08-12T07:14:10.156Z,2.65
2022-08-12T07:16:51.638Z,2.35
2022-08-12T07:19:19.120Z,2.30
2022-08-12T07:22:02.268Z,2.63
2022-08-12T07:24:29.899Z,2.65
2022-08-12T07:26:56.599Z,2.58
2022-08-12T07:29:23.316Z,2.90
2022-08-12T07:31:50.003Z,2.97
2022-08-12T07:34:17.144Z,2.67
2022-08-12T07:36:47.628Z,2.63
2022-08-12T07:39:14.548Z,2.63
2022-08-12T07:41:42.304Z,2.55
2022-08-12T07:44:09.819Z,2.10
2022-08-12T07:46:41.728Z,2.78
2022-08-12T07:49:11.813Z,2.60
2022-08-12T07:51:39.875Z,2.40
2022-08-12T07:54:09.711Z,2.53
2022-08-12T07:56:38.854Z,2.50
2022-08-12T07:59:08.104Z,2.55
2022-08-12T08:01:37.873Z,2.53
2022-08-12T08:04:24.608Z,2.40
2022-08-12T08:06:52.047Z,2.47
2022-08-12T08:09:21.688Z,2.40
2022-08-12T08:12:07.547Z,2.33
2022-08-12T08:14:35.347Z,2.55
2022-08-12T08:17:03.575Z,2.60
2022-08-12T08:19:33.688Z,2.42
2022-08-12T08:22:40.651Z,2.28
2022-08-12T08:25:34.308Z,2.15
2022-08-12T08:27:54.287Z,2.42
2022-08-12T08:30:21.040Z,2.45
2022-08-12T08:32:48.681Z,2.30
2022-08-12T08:35:15.517Z,2.50
2022-08-12T08:37:46.926Z,2.40
2022-08-12T08:40:33.833Z,2.30
2022-08-12T08:43:00.888Z,2.35
2022-08-12T08:45:28.430Z,2.35
2022-08-12T08:47:59.621Z,2.50
2022-08-12T08:50:27.590Z,2.63
2022-08-12T08:52:54.308Z,2.15
2022-08-12T08:55:30.051Z,2.92
2022-08-12T08:58:04.311Z,2.10
2022-08-12T09:00:31.061Z,2.28
2022-08-12T09:02:59.309Z,2.50
2022-08-12T09:05:28.052Z,2.53
2022-08-12T09:08:14.156Z,2.20
2022-08-12T09:10:45.238Z,2.22
2022-08-12T09:14:12.267Z,2.22
2022-08-12T09:16:20.415Z,2.53
2022-08-12T09:18:52.483Z,2.25
2022-08-12T09:21:20.589Z,2.20
2022-08-12T09:23:58.906Z,2.17
2022-08-12T09:26:38.230Z,2.10
2022-08-12T09:29:15.498Z,2.40
2022-08-12T09:32:07.820Z,2.63
2022-08-12T09:34:36.422Z,2.17
2022-08-12T09:37:18.637Z,2.38
2022-08-12T09:40:06.575Z,2.72
2022-08-12T09:43:15.139Z,2.20
2022-08-12T09:46:11.051Z,2.50
2022-08-12T09:48:35.065Z,2.10
2022-08-12T09:51:05.005Z,2.15
2022-08-12T09:53:45.710Z,2.50
2022-08-12T09:57:01.579Z,2.10
2022-08-12T10:00:17.898Z,2.08
2022-08-12T10:02:42.617Z,2.00
2022-08-12T10:04:57.889Z,1.83
2022-08-12T10:07:25.354Z,2.10
2022-08-12T10:09:58.358Z,2.10
2022-08-12T10:13:07.294Z,2.13
2022-08-12T10:16:01.618Z,2.47
2022-08-12T10:18:19.539Z,2.45
2022-08-12T10:20:46.303Z,2.30
2022-08-12T10:23:13.011Z,2.30
2022-08-12T10:26:34.269Z,2.15
2022-08-12T10:30:02.009Z,2.10
2022-08-12T10:32:21.782Z,2.20
2022-08-12T10:34:40.260Z,1.92
2022-08-12T10:37:58.160Z,2.50
2022-08-12T10:40:12.604Z,2.28
2022-08-12T10:43:01.008Z,2.38
2022-08-12T10:45:30.622Z,2.10
2022-08-12T10:48:19.678Z,2.27
2022-08-12T10:51:01.254Z,2.08
2022-08-12T10:53:45.964Z,1.90
2022-08-12T10:56:17.952Z,2.00
2022-08-12T10:58:47.103Z,1.55
2022-08-12T11:01:49.387Z,1.88
2022-08-12T11:04:24.946Z,1.45
2022-08-12T11:07:03.216Z,1.60
2022-08-12T11:09:42.118Z,1.65
2022-08-12T11:12:54.807Z,1.92
2022-08-12T11:15:18.666Z,2.10
2022-08-12T11:17:54.093Z,1.65
2022-08-12T11:20:24.244Z,1.50
2022-08-12T11:23:03.511Z,1.70
2022-08-12T11:25:56.413Z,1.50
2022-08-12T11:28:33.124Z,1.52
2022-08-12T11:31:01.963Z,1.50
2022-08-12T11:34:06.422Z,1.50
2022-08-12T11:36:16.520Z,1.90
2022-08-12T11:38:43.823Z,1.48
2022-08-12T11:41:27.922Z,1.45
2022-08-12T11:44:02.017Z,1.48
2022-08-12T11:46:51.200Z,1.58
2022-08-12T11:49:31.850Z,1.45
2022-08-12T11:52:02.883Z,1.52
2022-08-12T11:54:30.528Z,1.55
2022-08-12T11:57:02.378Z,1.58
2022-08-12T12:02:20.854Z,1.35
2022-08-12T12:04:52.910Z,1.30
2022-08-12T12:08:36.024Z,1.25
2022-08-12T12:10:15.162Z,1.30
2022-08-12T12:12:49.923Z,1.30
2022-08-12T12:15:24.786Z,1.50
2022-08-12T12:17:55.611Z,1.50
2022-08-12T12:20:26.024Z,1.25
2022-08-12T12:22:54.663Z,1.77
2022-08-12T12:25:21.531Z,1.50
2022-08-12T12:28:08.253Z,1.15
2022-08-12T12:30:55.174Z,1.75
2022-08-12T12:33:22.266Z,1.65
2022-08-12T12:36:16.695Z,1.35
2022-08-12T12:38:36.091Z,1.58
2022-08-12T12:41:16.386Z,1.60
2022-08-12T12:43:47.564Z,1.50
2022-08-12T12:46:30.643Z,1.60
2022-08-12T12:48:57.499Z,1.48
2022-08-12T12:52:17.228Z,1.30
2022-08-12T12:54:11.312Z,1.40
2022-08-12T12:56:41.886Z,1.50
2022-08-12T12:59:55.473Z,1.30
2022-08-12T13:01:56.005Z,1.23
2022-08-12T13:04:24.683Z,1.40
2022-08-12T13:06:52.155Z,1.63
2022-08-12T13:09:22.798Z,1.38
2022-08-12T13:11:53.156Z,1.55
2022-08-12T13:14:27.843Z,1.35
2022-08-12T13:17:02.382Z,1.30
2022-08-12T13:19:45.162Z,1.30
2022-08-12T13:22:19.062Z,1.80
2022-08-12T13:24:52.229Z,1.48
2022-08-12T13:27:35.270Z,1.60
2022-08-12T13:30:06.960Z,1.55
2022-08-12T13:32:38.046Z,1.63
2022-08-12T13:35:20.081Z,1.50
2022-08-12T13:37:55.648Z,1.70
2022-08-12T13:40:41.034Z,1.63
2022-08-12T13:43:07.757Z,1.80
2022-08-12T13:45:40.497Z,1.25
2022-08-12T13:48:08.260Z,1.58
2022-08-12T13:50:41.147Z,1.45
2022-08-12T13:53:24.894Z,1.52
2022-08-12T13:56:01.852Z,1.42
2022-08-12T13:58:30.548Z,1.20
2022-08-12T14:00:59.462Z,1.40
2022-08-12T14:03:28.348Z,1.35
2022-08-12T14:05:59.273Z,1.55
2022-08-12T14:08:28.423Z,1.40
2022-08-12T14:11:02.179Z,1.85
2022-08-12T14:14:04.342Z,1.73
2022-08-12T14:16:37.674Z,1.73
2022-08-12T14:19:10.611Z,1.52
2022-08-12T14:21:59.793Z,1.50
2022-08-12T14:24:35.094Z,1.70
2022-08-12T14:27:02.736Z,2.07
2022-08-12T14:29:38.162Z,1.93
2022-08-12T14:32:17.992Z,1.83
2022-08-12T14:34:47.072Z,1.85
2022-08-12T14:37:55.548Z,1.57
2022-08-12T14:40:03.690Z,1.83
2022-08-12T14:42:30.485Z,1.83
2022-08-12T14:45:01.423Z,1.70
2022-08-12T14:47:35.613Z,1.60
2022-08-12T14:50:37.190Z,1.83
2022-08-12T14:58:32.084Z,1.60
2022-08-12T15:01:19.775Z,1.60
2022-08-12T15:03:53.999Z,1.70
2022-08-12T15:06:39.332Z,1.83
2022-08-12T15:09:14.070Z,1.85
2022-08-12T15:11:54.722Z,1.50
2022-08-12T15:14:30.221Z,1.70
2022-08-12T15:17:00.644Z,1.50
2022-08-12T15:20:11.191Z,1.65
2022-08-12T15:22:37.725Z,1.70
2022-08-12T15:25:05.271Z,1.60
2022-08-12T15:28:20.700Z,1.70
2022-08-12T15:30:31.251Z,1.27
2022-08-12T15:32:58.594Z,1.30
2022-08-12T15:35:38.255Z,1.40
2022-08-12T15:38:20.609Z,1.70
2022-08-12T15:40:55.019Z,1.40
2022-08-12T15:43:52.028Z,1.48
2022-08-12T15:46:15.477Z,1.35
2022-08-12T15:48:46.732Z,1.40
2022-08-12T15:51:59.418Z,1.42
2022-08-12T15:54:33.522Z,1.60
2022-08-12T15:57:05.537Z,1.67
2022-08-12T16:00:02.284Z,1.67
2022-08-12T16:02:20.513Z,1.63
2022-08-12T16:04:50.475Z,1.45
2022-08-12T16:07:29.962Z,1.30
2022-08-12T16:10:05.568Z,1.70
2022-08-12T16:12:37.243Z,1.50
2022-08-12T16:15:06.869Z,1.30
2022-08-12T16:18:09.050Z,1.50
2022-08-12T16:20:33.308Z,1.40
2022-08-12T16:23:04.096Z,1.50
2022-08-12T16:26:00.231Z,1.70
2022-08-12T16:28:18.160Z,2.00
2022-08-12T16:30:50.172Z,1.88
2022-08-12T16:33:18.772Z,1.48
2022-08-12T16:35:49.732Z,1.50
2022-08-12T16:38:28.562Z,1.25
2022-08-12T16:40:57.044Z,1.70
2022-08-12T16:43:26.908Z,1.45
2022-08-12T16:46:23.351Z,1.77
2022-08-12T16:48:44.433Z,1.30
2022-08-12T16:51:13.385Z,1.52
2022-08-12T16:53:44.007Z,1.40
2022-08-12T16:56:15.125Z,1.20
2022-08-12T16:58:43.475Z,1.55
2022-08-12T17:01:14.546Z,1.40
2022-08-12T17:03:47.081Z,1.30
2022-08-12T17:06:22.320Z,1.60
2022-08-12T17:08:55.698Z,1.40
2022-08-12T17:11:24.545Z,1.50
2022-08-12T17:13:53.479Z,1.20
2022-08-12T17:16:21.250Z,1.30
2022-08-12T17:18:59.744Z,1.27
2022-08-12T17:21:41.424Z,1.50
2022-08-12T17:24:21.423Z,1.60
2022-08-12T17:26:54.041Z,1.42
2022-08-12T17:29:32.371Z,1.35
2022-08-12T17:32:11.298Z,1.70
2022-08-12T17:34:57.205Z,1.25
2022-08-12T17:37:24.130Z,1.30
2022-08-12T17:40:12.180Z,2.03
2022-08-12T17:42:43.525Z,1.20
2022-08-12T17:45:19.322Z,1.50
2022-08-12T17:48:04.646Z,1.50
2022-08-12T17:50:39.871Z,1.50
2022-08-12T17:53:10.763Z,1.50
2022-08-12T17:55:47.781Z,1.90
2022-08-12T17:58:36.838Z,1.42
2022-08-12T18:01:05.969Z,1.42
2022-08-12T18:03:58.167Z,1.35
2022-08-12T18:06:27.765Z,1.73
2022-08-12T18:08:58.651Z,1.50
2022-08-12T18:12:05.527Z,1.48
2022-08-12T18:14:32.858Z,2.03
2022-08-12T18:17:08.298Z,2.20
2022-08-12T18:20:05.113Z,2.20
2022-08-12T18:22:31.459Z,1.60
2022-08-12T18:25:17.295Z,1.90
2022-08-12T18:28:15.967Z,1.40
2022-08-12T18:30:52.149Z,1.55
2022-08-12T18:33:23.762Z,1.33
2022-08-12T18:35:53.812Z,1.35
2022-08-12T18:38:26.891Z,1.40
2022-08-12T18:41:21.976Z,1.30
2022-08-12T18:43:59.281Z,1.48
2022-08-12T18:46:54.150Z,1.60
2022-08-12T18:49:29.701Z,1.33
2022-08-12T18:52:04.887Z,1.45
2022-08-12T18:54:41.583Z,1.10
2022-08-12T18:57:19.807Z,1.27
2022-08-12T19:00:07.511Z,1.42
2022-08-12T19:02:40.704Z,1.40
2022-08-12T19:05:10.644Z,1.75
2022-08-12T19:07:49.672Z,1.80
2022-08-12T19:10:25.753Z,1.30
2022-08-12T19:13:15.678Z,1.25
2022-08-12T19:15:48.214Z,1.63
2022-08-12T19:18:15.102Z,1.38
2022-08-12T19:20:42.840Z,1.58
2022-08-12T19:23:16.298Z,1.50
2022-08-12T19:25:59.561Z,1.83
2022-08-12T19:28:35.393Z,2.15
2022-08-12T19:31:56.537Z,1.50
2022-08-12T19:38:03.230Z,1.65
2022-08-12T19:40:31.784Z,1.80
2022-08-12T19:43:21.783Z,1.60
2022-08-12T19:45:53.578Z,1.50
2022-08-12T19:48:22.661Z,1.40
2022-08-12T19:50:53.296Z,1.45
2022-08-12T19:53:22.675Z,1.33
2022-08-12T19:55:54.186Z,1.35
2022-08-12T19:58:22.748Z,1.40
2022-08-12T20:00:53.229Z,1.60
2022-08-12T20:03:37.960Z,1.40
2022-08-12T20:06:21.587Z,1.35
2022-08-12T20:08:56.525Z,1.75
2022-08-12T20:12:13.789Z,2.63
2022-08-12T20:14:18.984Z,1.65
2022-08-12T20:16:52.057Z,1.42
2022-08-12T20:19:21.634Z,1.58
2022-08-12T20:21:50.819Z,1.83
2022-08-12T20:24:19.115Z,1.60
2022-08-12T20:26:46.762Z,1.70
2022-08-12T20:29:16.457Z,1.60
2022-08-12T20:31:44.178Z,1.38
2022-08-12T20:34:12.016Z,1.73
2022-08-12T20:36:44.776Z,1.10
2022-08-12T20:39:37.433Z,1.27
2022-08-12T20:42:07.360Z,1.65
2022-08-12T20:44:40.321Z,1.40
2022-08-12T20:47:19.652Z,1.52
2022-08-12T20:49:55.320Z,1.30
2022-08-12T20:52:29.878Z,1.88
2022-08-12T20:54:57.720Z,1.52
2022-08-12T20:57:24.809Z,1.50
2022-08-12T21:00:08.893Z,1.95
2022-08-12T21:02:38.379Z,2.00
2022-08-12T21:05:24.590Z,1.73
2022-08-12T21:08:11.825Z,1.45
2022-08-12T21:10:38.727Z,1.55
2022-08-12T21:13:20.111Z,1.60
2022-08-12T21:15:55.019Z,1.77
2022-08-12T21:18:29.251Z,1.58
2022-08-12T21:20:58.828Z,1.38
2022-08-12T21:23:31.035Z,1.83
2022-08-12T21:26:06.041Z,1.80
2022-08-12T21:28:38.339Z,1.40
2022-08-12T21:32:35.007Z,1.40
2022-08-12T21:34:07.147Z,1.48
2022-08-12T21:36:43.398Z,1.30
2022-08-12T21:39:21.083Z,1.70
2022-08-12T21:41:51.365Z,1.50
2022-08-12T21:44:24.080Z,1.83
2022-08-12T21:47:21.142Z,1.83
2022-08-12T21:50:02.320Z,1.65
2022-08-12T21:52:34.656Z,1.42
2022-08-12T21:55:18.464Z,1.95
2022-08-12T21:57:53.083Z,1.58
2022-08-12T22:00:32.075Z,1.60
2022-08-12T22:03:25.028Z,1.63
2022-08-12T22:06:31.373Z,1.50
2022-08-12T22:09:09.041Z,1.60
2022-08-12T22:11:48.936Z,1.65
2022-08-12T22:14:24.429Z,1.60
2022-08-12T22:16:53.636Z,1.58
2022-08-12T22:19:22.804Z,2.00
2022-08-12T22:21:55.645Z,1.80
2022-08-12T22:24:30.285Z,1.70
2022-08-12T22:27:07.995Z,1.45
2022-08-12T22:30:08.495Z,1.58
2022-08-12T22:33:02.535Z,1.65
2022-08-12T22:35:56.181Z,1.73
2022-08-12T22:38:25.106Z,1.23
2022-08-12T22:40:55.354Z,1.40
2022-08-12T22:44:00.124Z,1.45
2022-08-12T22:46:33.338Z,1.60
2022-08-12T22:49:00.277Z,1.40
2022-08-12T22:51:30.422Z,1.30
2022-08-12T22:54:35.636Z,1.38
2022-08-12T22:57:04.712Z,1.38
2022-08-12T22:59:33.764Z,0.90
2022-08-12T23:02:29.104Z,1.27
2022-08-12T23:04:57.739Z,1.10
2022-08-12T23:07:24.667Z,1.23
2022-08-12T23:09:52.061Z,1.27
2022-08-12T23:12:46.556Z,1.20
2022-08-12T23:15:14.048Z,1.15
2022-08-12T23:17:41.907Z,1.40
2022-08-12T23:20:11.002Z,1.40
2022-08-12T23:22:40.150Z,1.00
2022-08-12T23:25:18.869Z,1.05
2022-08-12T23:28:05.934Z,1.05
2022-08-12T23:30:55.333Z,1.40
2022-08-12T23:34:00.681Z,1.65
2022-08-12T23:36:08.698Z,1.30
2022-08-12T23:38:39.571Z,1.35
2022-08-12T23:41:13.546Z,1.50
2022-08-12T23:43:44.290Z,1.17
2022-08-12T23:46:18.555Z,1.50
2022-08-12T23:48:48.186Z,1.50
2022-08-12T23:51:22.126Z,1.50
2022-08-12T23:53:59.892Z,0.98
2022-08-12T23:56:28.534Z,1.35
2022-08-12T23:58:58.448Z,1.25
